sensor_id;sensor_type;location;lat;lon;timestamp;P1;durP1;ratioP1;P2;durP2;ratioP2
54384;SDS011;40284;52.878;5.998;2022-11-12T00:02:18;21.23;;;12.30;;
54384;SDS011;40284;52.878;5.998;2022-11-12T00:04:44;18.83;;;12.85;;
54384;SDS011;40284;52.878;5.998;2022-11-12T00:07:10;18.50;;;12.65;;
54384;SDS011;40284;52.878;5.998;2022-11-12T00:09:36;19.15;;;13.10;;
54384;SDS011;40284;52.878;5.998;2022-11-12T00:12:02;17.42;;;12.52;;
54384;SDS011;40284;52.878;5.998;2022-11-12T00:14:28;19.63;;;13.18;;
54384;SDS011;40284;52.878;5.998;2022-11-12T00:16:54;22.50;;;13.65;;
54384;SDS011;40284;52.878;5.998;2022-11-12T00:19:20;16.70;;;12.48;;
54384;SDS011;40284;52.878;5.998;2022-11-12T00:21:46;18.00;;;12.30;;
54384;SDS011;40284;52.878;5.998;2022-11-12T00:24:12;17.42;;;12.75;;
54384;SDS011;40284;52.878;5.998;2022-11-12T00:26:38;18.70;;;12.10;;
54384;SDS011;40284;52.878;5.998;2022-11-12T00:29:04;16.98;;;12.38;;
54384;SDS011;40284;52.878;5.998;2022-11-12T00:31:30;16.58;;;12.18;;
54384;SDS011;40284;52.878;5.998;2022-11-12T00:33:58;20.13;;;12.05;;
54384;SDS011;40284;52.878;5.998;2022-11-12T00:36:24;20.10;;;12.27;;
54384;SDS011;40284;52.878;5.998;2022-11-12T00:38:50;16.85;;;12.93;;
54384;SDS011;40284;52.878;5.998;2022-11-12T00:41:16;17.85;;;12.45;;
54384;SDS011;40284;52.878;5.998;2022-11-12T00:43:42;16.17;;;12.05;;
54384;SDS011;40284;52.878;5.998;2022-11-12T00:46:08;20.35;;;14.88;;
54384;SDS011;40284;52.878;5.998;2022-11-12T00:48:34;30.33;;;18.73;;
54384;SDS011;40284;52.878;5.998;2022-11-12T00:51:01;25.77;;;17.65;;
54384;SDS011;40284;52.878;5.998;2022-11-12T00:53:28;20.73;;;15.57;;
54384;SDS011;40284;52.878;5.998;2022-11-12T00:55:58;21.00;;;15.30;;
54384;SDS011;40284;52.878;5.998;2022-11-12T00:58:26;17.23;;;13.88;;
54384;SDS011;40284;52.878;5.998;2022-11-12T01:00:52;19.95;;;15.10;;
54384;SDS011;40284;52.878;5.998;2022-11-12T01:03:18;18.45;;;12.98;;
54384;SDS011;40284;52.878;5.998;2022-11-12T01:05:44;17.70;;;12.82;;
54384;SDS011;40284;52.878;5.998;2022-11-12T01:08:11;20.23;;;12.45;;
54384;SDS011;40284;52.878;5.998;2022-11-12T01:10:37;19.92;;;12.32;;
54384;SDS011;40284;52.878;5.998;2022-11-12T01:13:03;14.80;;;12.23;;
54384;SDS011;40284;52.878;5.998;2022-11-12T01:15:29;18.52;;;12.82;;
54384;SDS011;40284;52.878;5.998;2022-11-12T01:17:55;20.88;;;12.75;;
54384;SDS011;40284;52.878;5.998;2022-11-12T01:20:21;19.75;;;12.93;;
54384;SDS011;40284;52.878;5.998;2022-11-12T01:22:47;18.33;;;12.95;;
54384;SDS011;40284;52.878;5.998;2022-11-12T01:25:13;17.92;;;13.07;;
54384;SDS011;40284;52.878;5.998;2022-11-12T01:27:39;18.02;;;13.50;;
54384;SDS011;40284;52.878;5.998;2022-11-12T01:30:05;17.30;;;14.45;;
54384;SDS011;40284;52.878;5.998;2022-11-12T01:32:35;21.95;;;15.40;;
54384;SDS011;40284;52.878;5.998;2022-11-12T01:35:01;23.55;;;17.52;;
54384;SDS011;40284;52.878;5.998;2022-11-12T01:37:27;20.75;;;16.40;;
54384;SDS011;40284;52.878;5.998;2022-11-12T01:39:53;40.67;;;26.05;;
54384;SDS011;40284;52.878;5.998;2022-11-12T01:42:19;23.73;;;17.80;;
54384;SDS011;40284;52.878;5.998;2022-11-12T01:44:50;25.33;;;16.92;;
54384;SDS011;40284;52.878;5.998;2022-11-12T01:47:22;23.15;;;14.20;;
54384;SDS011;40284;52.878;5.998;2022-11-12T01:49:55;19.63;;;13.35;;
54384;SDS011;40284;52.878;5.998;2022-11-12T01:52:23;17.30;;;12.68;;
54384;SDS011;40284;52.878;5.998;2022-11-12T01:54:52;20.23;;;13.18;;
54384;SDS011;40284;52.878;5.998;2022-11-12T01:57:22;18.70;;;13.25;;
54384;SDS011;40284;52.878;5.998;2022-11-12T01:59:49;18.83;;;14.00;;
54384;SDS011;40284;52.878;5.998;2022-11-12T02:02:17;19.02;;;13.40;;
54384;SDS011;40284;52.878;5.998;2022-11-12T02:04:43;16.20;;;13.07;;
54384;SDS011;40284;52.878;5.998;2022-11-12T02:07:10;24.00;;;13.95;;
54384;SDS011;40284;52.878;5.998;2022-11-12T02:09:37;16.23;;;13.70;;
54384;SDS011;40284;52.878;5.998;2022-11-12T02:12:03;28.02;;;17.67;;
54384;SDS011;40284;52.878;5.998;2022-11-12T02:14:29;27.52;;;17.70;;
54384;SDS011;40284;52.878;5.998;2022-11-12T02:16:56;29.17;;;18.02;;
54384;SDS011;40284;52.878;5.998;2022-11-12T02:19:23;19.33;;;14.60;;
54384;SDS011;40284;52.878;5.998;2022-11-12T02:21:50;17.77;;;13.65;;
54384;SDS011;40284;52.878;5.998;2022-11-12T02:26:46;17.10;;;13.93;;
54384;SDS011;40284;52.878;5.998;2022-11-12T02:29:15;21.33;;;14.87;;
54384;SDS011;40284;52.878;5.998;2022-11-12T02:31:41;19.42;;;13.45;;
54384;SDS011;40284;52.878;5.998;2022-11-12T02:34:07;21.65;;;15.95;;
54384;SDS011;40284;52.878;5.998;2022-11-12T02:36:33;23.77;;;17.02;;
54384;SDS011;40284;52.878;5.998;2022-11-12T02:38:59;25.63;;;16.48;;
54384;SDS011;40284;52.878;5.998;2022-11-12T02:41:25;21.88;;;15.15;;
54384;SDS011;40284;52.878;5.998;2022-11-12T02:43:51;25.05;;;16.25;;
54384;SDS011;40284;52.878;5.998;2022-11-12T02:46:17;20.10;;;14.75;;
54384;SDS011;40284;52.878;5.998;2022-11-12T02:48:43;21.88;;;15.00;;
54384;SDS011;40284;52.878;5.998;2022-11-12T02:51:09;23.05;;;15.85;;
54384;SDS011;40284;52.878;5.998;2022-11-12T02:53:35;20.88;;;14.57;;
54384;SDS011;40284;52.878;5.998;2022-11-12T02:56:02;19.20;;;14.45;;
54384;SDS011;40284;52.878;5.998;2022-11-12T02:58:28;20.85;;;13.18;;
54384;SDS011;40284;52.878;5.998;2022-11-12T03:00:54;19.17;;;15.27;;
54384;SDS011;40284;52.878;5.998;2022-11-12T03:03:21;18.30;;;15.05;;
54384;SDS011;40284;52.878;5.998;2022-11-12T03:05:54;19.02;;;14.23;;
54384;SDS011;40284;52.878;5.998;2022-11-12T03:08:20;24.25;;;15.77;;
54384;SDS011;40284;52.878;5.998;2022-11-12T03:10:47;20.30;;;14.55;;
54384;SDS011;40284;52.878;5.998;2022-11-12T03:13:13;18.02;;;14.25;;
54384;SDS011;40284;52.878;5.998;2022-11-12T03:15:39;20.20;;;15.05;;
54384;SDS011;40284;52.878;5.998;2022-11-12T03:18:05;19.42;;;14.80;;
54384;SDS011;40284;52.878;5.998;2022-11-12T03:20:31;19.48;;;14.48;;
54384;SDS011;40284;52.878;5.998;2022-11-12T03:23:03;18.05;;;14.13;;
54384;SDS011;40284;52.878;5.998;2022-11-12T03:25:29;16.58;;;14.30;;
54384;SDS011;40284;52.878;5.998;2022-11-12T03:28:29;19.85;;;14.15;;
54384;SDS011;40284;52.878;5.998;2022-11-12T03:30:48;18.98;;;14.02;;
54384;SDS011;40284;52.878;5.998;2022-11-12T03:33:14;20.52;;;14.98;;
54384;SDS011;40284;52.878;5.998;2022-11-12T03:35:41;21.05;;;15.20;;
54384;SDS011;40284;52.878;5.998;2022-11-12T03:38:07;21.23;;;13.68;;
54384;SDS011;40284;52.878;5.998;2022-11-12T03:40:33;18.65;;;14.07;;
54384;SDS011;40284;52.878;5.998;2022-11-12T03:42:59;21.23;;;14.27;;
54384;SDS011;40284;52.878;5.998;2022-11-12T03:45:26;15.40;;;13.00;;
54384;SDS011;40284;52.878;5.998;2022-11-12T03:47:53;19.42;;;15.45;;
54384;SDS011;40284;52.878;5.998;2022-11-12T03:50:21;16.77;;;14.75;;
54384;SDS011;40284;52.878;5.998;2022-11-12T03:52:48;17.48;;;13.73;;
54384;SDS011;40284;52.878;5.998;2022-11-12T03:55:15;15.93;;;13.52;;
54384;SDS011;40284;52.878;5.998;2022-11-12T03:57:42;17.65;;;13.52;;
54384;SDS011;40284;52.878;5.998;2022-11-12T04:00:08;20.33;;;15.00;;
54384;SDS011;40284;52.878;5.998;2022-11-12T04:02:34;19.15;;;14.57;;
54384;SDS011;40284;52.878;5.998;2022-11-12T04:05:00;20.10;;;14.45;;
54384;SDS011;40284;52.878;5.998;2022-11-12T04:07:48;18.52;;;14.50;;
54384;SDS011;40284;52.878;5.998;2022-11-12T04:10:34;18.60;;;14.57;;
54384;SDS011;40284;52.878;5.998;2022-11-12T04:13:00;19.50;;;13.98;;
54384;SDS011;40284;52.878;5.998;2022-11-12T04:15:45;21.17;;;14.45;;
54384;SDS011;40284;52.878;5.998;2022-11-12T04:18:31;17.35;;;14.20;;
54384;SDS011;40284;52.878;5.998;2022-11-12T04:21:15;19.17;;;14.63;;
54384;SDS011;40284;52.878;5.998;2022-11-12T04:24:00;18.40;;;14.73;;
54384;SDS011;40284;52.878;5.998;2022-11-12T04:26:26;17.70;;;14.43;;
54384;SDS011;40284;52.878;5.998;2022-11-12T04:28:52;18.17;;;15.13;;
54384;SDS011;40284;52.878;5.998;2022-11-12T04:31:37;21.45;;;15.70;;
54384;SDS011;40284;52.878;5.998;2022-11-12T04:34:03;22.42;;;15.25;;
54384;SDS011;40284;52.878;5.998;2022-11-12T04:36:48;18.52;;;14.68;;
54384;SDS011;40284;52.878;5.998;2022-11-12T04:39:14;18.20;;;13.95;;
54384;SDS011;40284;52.878;5.998;2022-11-12T04:41:40;21.73;;;16.02;;
54384;SDS011;40284;52.878;5.998;2022-11-12T04:44:25;17.00;;;14.77;;
54384;SDS011;40284;52.878;5.998;2022-11-12T04:47:09;19.27;;;14.52;;
54384;SDS011;40284;52.878;5.998;2022-11-12T04:49:35;20.88;;;15.27;;
54384;SDS011;40284;52.878;5.998;2022-11-12T04:52:01;26.63;;;14.98;;
54384;SDS011;40284;52.878;5.998;2022-11-12T04:54:31;23.77;;;15.90;;
54384;SDS011;40284;52.878;5.998;2022-11-12T04:56:57;19.20;;;15.85;;
54384;SDS011;40284;52.878;5.998;2022-11-12T04:59:23;21.20;;;15.38;;
54384;SDS011;40284;52.878;5.998;2022-11-12T05:01:50;18.63;;;14.70;;
54384;SDS011;40284;52.878;5.998;2022-11-12T05:04:16;23.15;;;15.32;;
54384;SDS011;40284;52.878;5.998;2022-11-12T05:06:42;21.75;;;15.80;;
54384;SDS011;40284;52.878;5.998;2022-11-12T05:09:22;20.50;;;14.93;;
54384;SDS011;40284;52.878;5.998;2022-11-12T05:11:48;19.25;;;14.43;;
54384;SDS011;40284;52.878;5.998;2022-11-12T05:14:14;19.20;;;14.88;;
54384;SDS011;40284;52.878;5.998;2022-11-12T05:16:41;19.55;;;15.70;;
54384;SDS011;40284;52.878;5.998;2022-11-12T05:19:07;19.48;;;15.43;;
54384;SDS011;40284;52.878;5.998;2022-11-12T05:21:33;22.23;;;14.60;;
54384;SDS011;40284;52.878;5.998;2022-11-12T05:24:18;18.23;;;14.38;;
54384;SDS011;40284;52.878;5.998;2022-11-12T05:26:44;16.80;;;14.18;;
54384;SDS011;40284;52.878;5.998;2022-11-12T05:29:10;17.77;;;13.65;;
54384;SDS011;40284;52.878;5.998;2022-11-12T05:31:36;23.05;;;14.68;;
54384;SDS011;40284;52.878;5.998;2022-11-12T05:34:02;19.73;;;13.60;;
54384;SDS011;40284;52.878;5.998;2022-11-12T05:36:28;20.90;;;14.98;;
54384;SDS011;40284;52.878;5.998;2022-11-12T05:38:54;20.42;;;14.55;;
54384;SDS011;40284;52.878;5.998;2022-11-12T05:41:20;19.00;;;14.48;;
54384;SDS011;40284;52.878;5.998;2022-11-12T05:43:46;20.70;;;13.70;;
54384;SDS011;40284;52.878;5.998;2022-11-12T05:46:12;20.50;;;14.07;;
54384;SDS011;40284;52.878;5.998;2022-11-12T05:48:38;26.58;;;14.68;;
54384;SDS011;40284;52.878;5.998;2022-11-12T05:51:04;27.77;;;16.17;;
54384;SDS011;40284;52.878;5.998;2022-11-12T05:53:30;42.38;;;17.15;;
54384;SDS011;40284;52.878;5.998;2022-11-12T05:56:03;34.35;;;18.08;;
54384;SDS011;40284;52.878;5.998;2022-11-12T05:58:29;40.10;;;17.58;;
54384;SDS011;40284;52.878;5.998;2022-11-12T06:00:56;42.72;;;17.23;;
54384;SDS011;40284;52.878;5.998;2022-11-12T06:03:22;63.97;;;17.40;;
54384;SDS011;40284;52.878;5.998;2022-11-12T06:05:48;67.13;;;18.63;;
54384;SDS011;40284;52.878;5.998;2022-11-12T06:08:14;73.18;;;21.02;;
54384;SDS011;40284;52.878;5.998;2022-11-12T06:10:40;89.45;;;19.88;;
54384;SDS011;40284;52.878;5.998;2022-11-12T06:13:07;76.70;;;21.38;;
54384;SDS011;40284;52.878;5.998;2022-11-12T06:15:33;114.47;;;23.80;;
54384;SDS011;40284;52.878;5.998;2022-11-12T06:17:59;105.28;;;23.50;;
54384;SDS011;40284;52.878;5.998;2022-11-12T06:20:25;118.68;;;24.75;;
54384;SDS011;40284;52.878;5.998;2022-11-12T06:22:51;114.65;;;26.60;;
54384;SDS011;40284;52.878;5.998;2022-11-12T06:25:17;69.78;;;22.63;;
54384;SDS011;40284;52.878;5.998;2022-11-12T06:27:43;64.38;;;21.77;;
54384;SDS011;40284;52.878;5.998;2022-11-12T06:30:09;109.43;;;23.08;;
54384;SDS011;40284;52.878;5.998;2022-11-12T06:32:35;111.07;;;25.00;;
54384;SDS011;40284;52.878;5.998;2022-11-12T06:35:01;95.72;;;25.25;;
54384;SDS011;40284;52.878;5.998;2022-11-12T06:37:27;80.18;;;23.58;;
54384;SDS011;40284;52.878;5.998;2022-11-12T06:39:53;119.25;;;29.77;;
54384;SDS011;40284;52.878;5.998;2022-11-12T06:42:19;94.25;;;23.75;;
54384;SDS011;40284;52.878;5.998;2022-11-12T06:44:45;87.05;;;26.45;;
54384;SDS011;40284;52.878;5.998;2022-11-12T06:47:11;78.72;;;24.50;;
54384;SDS011;40284;52.878;5.998;2022-11-12T06:49:37;76.72;;;24.63;;
54384;SDS011;40284;52.878;5.998;2022-11-12T06:52:04;102.15;;;26.60;;
54384;SDS011;40284;52.878;5.998;2022-11-12T06:54:30;85.07;;;27.48;;
54384;SDS011;40284;52.878;5.998;2022-11-12T06:56:56;85.03;;;27.58;;
54384;SDS011;40284;52.878;5.998;2022-11-12T06:59:22;75.10;;;27.75;;
54384;SDS011;40284;52.878;5.998;2022-11-12T07:01:48;75.32;;;29.27;;
54384;SDS011;40284;52.878;5.998;2022-11-12T07:04:14;113.70;;;35.22;;
54384;SDS011;40284;52.878;5.998;2022-11-12T07:06:40;70.70;;;29.88;;
54384;SDS011;40284;52.878;5.998;2022-11-12T07:09:09;88.55;;;33.10;;
54384;SDS011;40284;52.878;5.998;2022-11-12T07:11:36;92.88;;;34.95;;
54384;SDS011;40284;52.878;5.998;2022-11-12T07:14:04;85.57;;;34.95;;
54384;SDS011;40284;52.878;5.998;2022-11-12T07:16:30;120.63;;;42.45;;
54384;SDS011;40284;52.878;5.998;2022-11-12T07:18:57;133.38;;;39.58;;
54384;SDS011;40284;52.878;5.998;2022-11-12T07:21:23;93.70;;;36.00;;
54384;SDS011;40284;52.878;5.998;2022-11-12T07:23:49;82.55;;;34.35;;
54384;SDS011;40284;52.878;5.998;2022-11-12T07:26:19;75.28;;;33.10;;
54384;SDS011;40284;52.878;5.998;2022-11-12T07:28:46;102.43;;;35.17;;
54384;SDS011;40284;52.878;5.998;2022-11-12T07:31:13;92.28;;;36.88;;
54384;SDS011;40284;52.878;5.998;2022-11-12T07:33:39;111.63;;;38.85;;
54384;SDS011;40284;52.878;5.998;2022-11-12T07:36:06;78.50;;;34.70;;
54384;SDS011;40284;52.878;5.998;2022-11-12T07:38:33;69.75;;;33.20;;
54384;SDS011;40284;52.878;5.998;2022-11-12T07:43:26;88.40;;;36.50;;
54384;SDS011;40284;52.878;5.998;2022-11-12T07:45:52;80.95;;;36.78;;
54384;SDS011;40284;52.878;5.998;2022-11-12T07:48:22;112.78;;;41.22;;
54384;SDS011;40284;52.878;5.998;2022-11-12T07:50:48;97.55;;;38.78;;
54384;SDS011;40284;52.878;5.998;2022-11-12T07:53:14;82.13;;;38.10;;
54384;SDS011;40284;52.878;5.998;2022-11-12T07:55:40;140.65;;;40.42;;
54384;SDS011;40284;52.878;5.998;2022-11-12T07:58:06;87.07;;;33.78;;
54384;SDS011;40284;52.878;5.998;2022-11-12T08:00:32;104.25;;;33.13;;
54384;SDS011;40284;52.878;5.998;2022-11-12T08:02:58;84.60;;;33.30;;
54384;SDS011;40284;52.878;5.998;2022-11-12T08:05:27;121.20;;;34.50;;
54384;SDS011;40284;52.878;5.998;2022-11-12T08:07:54;84.55;;;32.40;;
54384;SDS011;40284;52.878;5.998;2022-11-12T08:10:21;85.13;;;30.73;;
54384;SDS011;40284;52.878;5.998;2022-11-12T08:12:47;122.53;;;35.67;;
54384;SDS011;40284;52.878;5.998;2022-11-12T08:15:13;128.27;;;35.20;;
54384;SDS011;40284;52.878;5.998;2022-11-12T08:17:39;175.65;;;38.90;;
54384;SDS011;40284;52.878;5.998;2022-11-12T08:20:05;87.68;;;32.30;;
54384;SDS011;40284;52.878;5.998;2022-11-12T08:22:31;106.15;;;32.40;;
54384;SDS011;40284;52.878;5.998;2022-11-12T08:24:58;88.95;;;33.22;;
54384;SDS011;40284;52.878;5.998;2022-11-12T08:27:24;117.97;;;32.83;;
54384;SDS011;40284;52.878;5.998;2022-11-12T08:29:50;171.60;;;50.15;;
54384;SDS011;40284;52.878;5.998;2022-11-12T08:32:16;229.75;;;43.90;;
54384;SDS011;40284;52.878;5.998;2022-11-12T08:34:42;129.32;;;46.55;;
54384;SDS011;40284;52.878;5.998;2022-11-12T08:37:08;126.68;;;34.10;;
54384;SDS011;40284;52.878;5.998;2022-11-12T08:39:34;136.98;;;34.70;;
54384;SDS011;40284;52.878;5.998;2022-11-12T08:42:00;198.48;;;38.92;;
54384;SDS011;40284;52.878;5.998;2022-11-12T08:44:26;163.45;;;38.85;;
54384;SDS011;40284;52.878;5.998;2022-11-12T08:46:52;122.82;;;35.70;;
54384;SDS011;40284;52.878;5.998;2022-11-12T08:49:18;109.50;;;37.35;;
54384;SDS011;40284;52.878;5.998;2022-11-12T08:51:44;155.73;;;38.15;;
54384;SDS011;40284;52.878;5.998;2022-11-12T08:54:10;150.52;;;35.47;;
54384;SDS011;40284;52.878;5.998;2022-11-12T08:56:36;120.32;;;32.10;;
54384;SDS011;40284;52.878;5.998;2022-11-12T08:59:02;152.63;;;32.53;;
54384;SDS011;40284;52.878;5.998;2022-11-12T09:01:29;157.50;;;35.95;;
54384;SDS011;40284;52.878;5.998;2022-11-12T09:03:55;113.15;;;32.17;;
54384;SDS011;40284;52.878;5.998;2022-11-12T09:06:21;166.25;;;32.65;;
54384;SDS011;40284;52.878;5.998;2022-11-12T09:08:47;120.68;;;33.53;;
54384;SDS011;40284;52.878;5.998;2022-11-12T09:11:13;203.02;;;34.70;;
54384;SDS011;40284;52.878;5.998;2022-11-12T09:13:39;189.73;;;37.40;;
54384;SDS011;40284;52.878;5.998;2022-11-12T09:16:05;144.50;;;34.97;;
54384;SDS011;40284;52.878;5.998;2022-11-12T09:18:32;134.80;;;34.58;;
54384;SDS011;40284;52.878;5.998;2022-11-12T09:21:00;171.65;;;36.53;;
54384;SDS011;40284;52.878;5.998;2022-11-12T09:23:26;130.63;;;35.30;;
54384;SDS011;40284;52.878;5.998;2022-11-12T09:25:53;152.23;;;40.40;;
54384;SDS011;40284;52.878;5.998;2022-11-12T09:28:19;136.55;;;41.75;;
54384;SDS011;40284;52.878;5.998;2022-11-12T09:30:46;112.85;;;32.42;;
54384;SDS011;40284;52.878;5.998;2022-11-12T09:33:13;85.32;;;31.20;;
54384;SDS011;40284;52.878;5.998;2022-11-12T09:35:39;99.57;;;29.33;;
54384;SDS011;40284;52.878;5.998;2022-11-12T09:38:05;113.80;;;27.50;;
54384;SDS011;40284;52.878;5.998;2022-11-12T09:40:45;84.68;;;24.30;;
54384;SDS011;40284;52.878;5.998;2022-11-12T09:43:22;46.47;;;24.63;;
54384;SDS011;40284;52.878;5.998;2022-11-12T09:45:50;64.40;;;24.40;;
54384;SDS011;40284;52.878;5.998;2022-11-12T09:48:17;60.92;;;24.63;;
54384;SDS011;40284;52.878;5.998;2022-11-12T09:50:49;98.03;;;27.13;;
54384;SDS011;40284;52.878;5.998;2022-11-12T09:55:49;55.97;;;24.55;;
54384;SDS011;40284;52.878;5.998;2022-11-12T09:58:16;49.80;;;26.33;;
54384;SDS011;40284;52.878;5.998;2022-11-12T10:01:29;47.10;;;27.15;;
54384;SDS011;40284;52.878;5.998;2022-11-12T10:06:20;62.72;;;27.60;;
54384;SDS011;40284;52.878;5.998;2022-11-12T10:16:56;63.03;;;27.27;;
54384;SDS011;40284;52.878;5.998;2022-11-12T10:19:49;48.55;;;26.63;;
54384;SDS011;40284;52.878;5.998;2022-11-12T10:24:47;55.90;;;28.38;;
54384;SDS011;40284;52.878;5.998;2022-11-12T10:29:47;40.67;;;30.63;;
54384;SDS011;40284;52.878;5.998;2022-11-12T10:32:14;40.20;;;27.20;;
54384;SDS011;40284;52.878;5.998;2022-11-12T10:34:41;42.35;;;28.42;;
54384;SDS011;40284;52.878;5.998;2022-11-12T10:37:14;50.22;;;29.50;;
54384;SDS011;40284;52.878;5.998;2022-11-12T10:39:43;43.13;;;28.70;;
54384;SDS011;40284;52.878;5.998;2022-11-12T10:42:18;45.47;;;28.75;;
54384;SDS011;40284;52.878;5.998;2022-11-12T10:44:44;30.65;;;24.30;;
54384;SDS011;40284;52.878;5.998;2022-11-12T10:49:43;38.10;;;27.00;;
54384;SDS011;40284;52.878;5.998;2022-11-12T10:52:19;32.97;;;24.23;;
54384;SDS011;40284;52.878;5.998;2022-11-12T10:54:46;28.95;;;23.63;;
54384;SDS011;40284;52.878;5.998;2022-11-12T10:57:19;32.35;;;23.67;;
54384;SDS011;40284;52.878;5.998;2022-11-12T11:02:14;28.10;;;22.70;;
54384;SDS011;40284;52.878;5.998;2022-11-12T11:04:41;31.45;;;24.38;;
54384;SDS011;40284;52.878;5.998;2022-11-12T11:12:37;34.45;;;28.65;;
54384;SDS011;40284;52.878;5.998;2022-11-12T11:17:35;29.55;;;24.17;;
54384;SDS011;40284;52.878;5.998;2022-11-12T11:20:02;32.72;;;23.23;;
54384;SDS011;40284;52.878;5.998;2022-11-12T11:22:34;23.88;;;20.05;;
54384;SDS011;40284;52.878;5.998;2022-11-12T11:25:14;23.27;;;18.95;;
54384;SDS011;40284;52.878;5.998;2022-11-12T11:30:10;22.15;;;18.52;;
54384;SDS011;40284;52.878;5.998;2022-11-12T11:32:41;22.73;;;20.27;;
54384;SDS011;40284;52.878;5.998;2022-11-12T11:45:22;21.50;;;15.63;;
54384;SDS011;40284;52.878;5.998;2022-11-12T11:48:14;19.90;;;14.82;;
54384;SDS011;40284;52.878;5.998;2022-11-12T11:50:45;15.82;;;13.73;;
54384;SDS011;40284;52.878;5.998;2022-11-12T11:55:56;18.90;;;14.73;;
54384;SDS011;40284;52.878;5.998;2022-11-12T12:03:42;15.57;;;13.85;;
54384;SDS011;40284;52.878;5.998;2022-11-12T12:11:21;15.45;;;13.20;;
54384;SDS011;40284;52.878;5.998;2022-11-12T12:13:52;15.48;;;13.45;;
54384;SDS011;40284;52.878;5.998;2022-11-12T12:16:25;17.95;;;13.95;;
54384;SDS011;40284;52.878;5.998;2022-11-12T12:21:38;18.77;;;13.07;;
54384;SDS011;40284;52.878;5.998;2022-11-12T12:24:09;15.85;;;12.32;;
54384;SDS011;40284;52.878;5.998;2022-11-12T12:26:53;17.33;;;13.43;;
54384;SDS011;40284;52.878;5.998;2022-11-12T12:31:54;15.23;;;12.77;;
54384;SDS011;40284;52.878;5.998;2022-11-12T12:34:38;16.85;;;13.75;;
54384;SDS011;40284;52.878;5.998;2022-11-12T12:42:47;15.57;;;12.77;;
54384;SDS011;40284;52.878;5.998;2022-11-12T12:48:00;16.50;;;13.23;;
54384;SDS011;40284;52.878;5.998;2022-11-12T12:50:28;15.48;;;13.27;;
54384;SDS011;40284;52.878;5.998;2022-11-12T12:53:02;15.60;;;13.05;;
54384;SDS011;40284;52.878;5.998;2022-11-12T12:55:34;17.08;;;12.73;;
54384;SDS011;40284;52.878;5.998;2022-11-12T12:58:01;12.52;;;11.05;;
54384;SDS011;40284;52.878;5.998;2022-11-12T13:02:54;14.30;;;11.93;;
54384;SDS011;40284;52.878;5.998;2022-11-12T13:05:30;14.23;;;10.95;;
54384;SDS011;40284;52.878;5.998;2022-11-12T13:08:01;13.60;;;10.52;;
54384;SDS011;40284;52.878;5.998;2022-11-12T13:10:47;13.73;;;10.52;;
54384;SDS011;40284;52.878;5.998;2022-11-12T13:15:45;12.82;;;9.77;;
54384;SDS011;40284;52.878;5.998;2022-11-12T13:21:10;14.00;;;11.10;;
54384;SDS011;40284;52.878;5.998;2022-11-12T13:23:52;17.90;;;12.52;;
54384;SDS011;40284;52.878;5.998;2022-11-12T13:29:23;19.05;;;15.82;;
54384;SDS011;40284;52.878;5.998;2022-11-12T13:32:22;16.58;;;13.15;;
54384;SDS011;40284;52.878;5.998;2022-11-12T13:34:35;15.65;;;12.90;;
54384;SDS011;40284;52.878;5.998;2022-11-12T13:37:02;14.35;;;11.05;;
54384;SDS011;40284;52.878;5.998;2022-11-12T13:39:31;18.70;;;13.55;;
54384;SDS011;40284;52.878;5.998;2022-11-12T13:41:57;15.60;;;11.52;;
54384;SDS011;40284;52.878;5.998;2022-11-12T13:44:42;18.63;;;13.07;;
54384;SDS011;40284;52.878;5.998;2022-11-12T13:47:19;31.27;;;17.55;;
54384;SDS011;40284;52.878;5.998;2022-11-12T13:49:46;19.85;;;15.00;;
54384;SDS011;40284;52.878;5.998;2022-11-12T13:52:13;16.63;;;12.25;;
54384;SDS011;40284;52.878;5.998;2022-11-12T13:54:40;12.43;;;11.10;;
54384;SDS011;40284;52.878;5.998;2022-11-12T13:57:13;14.68;;;10.52;;
54384;SDS011;40284;52.878;5.998;2022-11-12T13:59:39;20.20;;;16.00;;
54384;SDS011;40284;52.878;5.998;2022-11-12T14:02:24;14.57;;;12.52;;
54384;SDS011;40284;52.878;5.998;2022-11-12T14:04:51;20.92;;;16.27;;
54384;SDS011;40284;52.878;5.998;2022-11-12T14:09:56;11.82;;;10.60;;
54384;SDS011;40284;52.878;5.998;2022-11-12T14:17:42;15.00;;;11.07;;
54384;SDS011;40284;52.878;5.998;2022-11-12T14:20:24;14.27;;;12.15;;
54384;SDS011;40284;52.878;5.998;2022-11-12T14:22:51;27.05;;;19.02;;
54384;SDS011;40284;52.878;5.998;2022-11-12T14:25:19;21.52;;;17.13;;
54384;SDS011;40284;52.878;5.998;2022-11-12T14:27:46;22.90;;;19.58;;
54384;SDS011;40284;52.878;5.998;2022-11-12T14:30:14;20.48;;;15.55;;
54384;SDS011;40284;52.878;5.998;2022-11-12T14:32:41;20.85;;;17.63;;
54384;SDS011;40284;52.878;5.998;2022-11-12T14:38:29;16.55;;;13.05;;
54384;SDS011;40284;52.878;5.998;2022-11-12T14:45:48;15.15;;;12.50;;
54384;SDS011;40284;52.878;5.998;2022-11-12T14:48:14;18.42;;;12.40;;
54384;SDS011;40284;52.878;5.998;2022-11-12T14:50:41;15.65;;;11.13;;
54384;SDS011;40284;52.878;5.998;2022-11-12T14:53:15;16.02;;;11.68;;
54384;SDS011;40284;52.878;5.998;2022-11-12T14:55:46;13.18;;;10.52;;
54384;SDS011;40284;52.878;5.998;2022-11-12T14:58:13;15.48;;;11.07;;
54384;SDS011;40284;52.878;5.998;2022-11-12T15:00:44;46.20;;;33.33;;
54384;SDS011;40284;52.878;5.998;2022-11-12T15:03:11;24.20;;;19.98;;
54384;SDS011;40284;52.878;5.998;2022-11-12T15:08:27;15.23;;;11.00;;
54384;SDS011;40284;52.878;5.998;2022-11-12T15:10:53;13.05;;;11.07;;
54384;SDS011;40284;52.878;5.998;2022-11-12T15:13:20;16.85;;;12.23;;
54384;SDS011;40284;52.878;5.998;2022-11-12T15:16:09;13.27;;;11.20;;
54384;SDS011;40284;52.878;5.998;2022-11-12T15:18:34;17.85;;;11.65;;
54384;SDS011;40284;52.878;5.998;2022-11-12T15:26:32;17.17;;;13.48;;
54384;SDS011;40284;52.878;5.998;2022-11-12T15:31:28;15.32;;;12.68;;
54384;SDS011;40284;52.878;5.998;2022-11-12T15:36:44;15.57;;;12.15;;
54384;SDS011;40284;52.878;5.998;2022-11-12T15:39:11;17.58;;;13.13;;
54384;SDS011;40284;52.878;5.998;2022-11-12T15:41:38;18.67;;;14.88;;
54384;SDS011;40284;52.878;5.998;2022-11-12T15:44:06;22.27;;;15.52;;
54384;SDS011;40284;52.878;5.998;2022-11-12T15:46:33;19.92;;;14.93;;
54384;SDS011;40284;52.878;5.998;2022-11-12T15:48:59;21.70;;;15.50;;
54384;SDS011;40284;52.878;5.998;2022-11-12T15:51:25;20.67;;;14.57;;
54384;SDS011;40284;52.878;5.998;2022-11-12T15:53:51;22.20;;;16.50;;
54384;SDS011;40284;52.878;5.998;2022-11-12T15:56:17;19.05;;;15.60;;
54384;SDS011;40284;52.878;5.998;2022-11-12T15:58:47;22.85;;;15.65;;
54384;SDS011;40284;52.878;5.998;2022-11-12T16:01:13;21.58;;;16.80;;
54384;SDS011;40284;52.878;5.998;2022-11-12T16:03:39;22.10;;;19.27;;
54384;SDS011;40284;52.878;5.998;2022-11-12T16:06:07;24.00;;;18.08;;
54384;SDS011;40284;52.878;5.998;2022-11-12T16:08:34;26.42;;;19.38;;
54384;SDS011;40284;52.878;5.998;2022-11-12T16:11:00;42.47;;;29.55;;
54384;SDS011;40284;52.878;5.998;2022-11-12T16:13:27;32.38;;;24.17;;
54384;SDS011;40284;52.878;5.998;2022-11-12T16:15:54;32.08;;;22.80;;
54384;SDS011;40284;52.878;5.998;2022-11-12T16:18:20;30.10;;;21.48;;
54384;SDS011;40284;52.878;5.998;2022-11-12T16:20:46;25.83;;;20.00;;
54384;SDS011;40284;52.878;5.998;2022-11-12T16:23:13;27.50;;;20.98;;
54384;SDS011;40284;52.878;5.998;2022-11-12T16:25:40;27.17;;;20.20;;